Time;durP1;ratioP1;P1;durP2;ratioP2;P2;SDS_P1;SDS_P2;PMS_P1;PMS_P2;Temp;Humidity;BMP_temperature;BMP_pressure;BME280_temperature;BME280_humidity;BME280_pressure;Samples;Min_cycle;Max_cycle;Signal;HPM_P1;HPM_P2
2022/12/20 00:02:07;;;;;;;0.20;0.20;;;2.70;99.90;;;;;;5051130;28;20178;-58
2022/12/20 00:04:33;;;;;;;1.95;0.45;;;2.80;99.90;;;;;;5051077;28;20177;-57
2022/12/20 00:06:59;;;;;;;0.08;0.08;;;2.70;99.90;;;;;;5051243;28;20209;-58
2022/12/20 00:09:24;;;;;;;0.13;0.13;;;2.70;99.90;;;;;;5050919;28;20209;-57
2022/12/20 00:11:50;;;;;;;0.30;0.30;;;2.80;99.90;;;;;;5050712;28;20229;-58
2022/12/20 00:14:16;;;;;;;0.20;0.20;;;2.80;99.90;;;;;;5050865;28;20637;-57
2022/12/20 00:16:42;;;;;;;0.00;0.00;;;2.80;99.90;;;;;;5050600;28;20668;-58
2022/12/20 00:19:09;;;;;;;0.10;0.10;;;2.80;99.90;;;;;;5050360;28;20671;-58
2022/12/20 00:21:35;;;;;;;0.28;0.28;;;2.90;99.90;;;;;;5051403;28;20262;-58
2022/12/20 00:24:01;;;;;;;0.15;0.15;;;2.90;99.90;;;;;;5050906;28;20213;-58
2022/12/20 00:26:29;;;;;;;0.90;0.85;;;2.90;99.90;;;;;;5051009;28;20348;-58
2022/12/20 00:28:56;;;;;;;0.05;0.05;;;2.90;99.90;;;;;;5050670;28;20227;-57
2022/12/20 00:31:23;;;;;;;0.03;0.03;;;2.90;99.90;;;;;;5051119;28;20192;-58
2022/12/20 00:33:51;;;;;;;0.03;0.03;;;3.00;99.90;;;;;;5050906;28;20219;-59
2022/12/20 00:36:18;;;;;;;0.32;0.32;;;3.00;99.90;;;;;;5050320;28;20221;-58
2022/12/20 00:38:48;;;;;;;0.00;0.00;;;3.10;99.90;;;;;;5050237;28;20186;-58
2022/12/20 00:41:17;;;;;;;0.40;0.40;;;3.10;99.90;;;;;;5052459;28;20178;-57
2022/12/20 00:43:42;;;;;;;0.35;0.35;;;3.10;99.90;;;;;;5042976;28;20280;-57
2022/12/20 00:46:10;;;;;;;0.13;0.13;;;3.10;99.90;;;;;;5054373;28;20703;-57
2022/12/20 00:48:36;;;;;;;0.00;0.00;;;3.10;99.90;;;;;;5054287;28;20688;-58
2022/12/20 00:51:05;;;;;;;0.00;0.00;;;3.20;99.90;;;;;;5053866;28;20310;-57
2022/12/20 00:53:31;;;;;;;0.00;0.00;;;3.20;99.90;;;;;;5053977;28;20189;-58
2022/12/20 00:55:57;;;;;;;0.00;0.00;;;3.20;99.90;;;;;;5054208;28;20180;-57
2022/12/20 00:58:22;;;;;;;0.03;0.03;;;3.20;99.90;;;;;;5054109;28;20185;-58
2022/12/20 01:00:48;;;;;;;0.00;0.00;;;3.30;99.90;;;;;;5053591;28;20178;-58
2022/12/20 01:03:14;;;;;;;0.00;0.00;;;3.30;99.90;;;;;;5045358;28;20271;-58
2022/12/20 01:05:48;;;;;;;0.22;0.22;;;3.30;99.90;;;;;;5054118;28;20642;-58
2022/12/20 01:08:13;;;;;;;0.08;0.08;;;3.30;99.90;;;;;;5053879;28;20201;-58
2022/12/20 01:10:39;;;;;;;0.03;0.03;;;3.30;99.90;;;;;;5053742;28;20181;-58
2022/12/20 01:13:04;;;;;;;0.10;0.10;;;3.40;99.90;;;;;;5053644;28;20575;-58
2022/12/20 01:15:30;;;;;;;0.00;0.00;;;3.40;99.90;;;;;;5054035;28;20201;-59
2022/12/20 01:17:56;;;;;;;0.03;0.03;;;3.40;99.90;;;;;;5053808;28;20181;-58
2022/12/20 01:20:22;;;;;;;0.60;0.22;;;3.30;99.90;;;;;;5054045;28;20178;-58
2022/12/20 01:22:47;;;;;;;0.98;0.90;;;3.30;99.90;;;;;;5053904;28;20714;-58
2022/12/20 01:25:13;;;;;;;0.52;0.52;;;3.30;99.90;;;;;;5053282;28;20182;-58
2022/12/20 01:27:38;;;;;;;0.00;0.00;;;3.30;99.90;;;;;;5051830;28;20221;-58
2022/12/20 01:30:04;;;;;;;0.00;0.00;;;3.30;99.90;;;;;;5053741;28;20193;-59
2022/12/20 01:32:30;;;;;;;0.00;0.00;;;3.30;99.90;;;;;;5053292;28;20187;-59
2022/12/20 01:34:55;;;;;;;0.40;0.30;;;3.30;99.90;;;;;;5052878;28;20189;-58
2022/12/20 01:37:21;;;;;;;0.20;0.20;;;3.30;99.90;;;;;;5053093;28;20235;-58
2022/12/20 01:39:46;;;;;;;1.35;0.35;;;3.30;99.90;;;;;;5053458;28;20181;-59
2022/12/20 01:42:15;;;;;;;0.00;0.00;;;3.40;99.90;;;;;;5053837;28;20189;-58
2022/12/20 01:44:41;;;;;;;0.28;0.28;;;3.40;99.90;;;;;;5053478;28;20548;-59
2022/12/20 01:47:06;;;;;;;0.00;0.00;;;3.40;99.90;;;;;;5053347;28;20181;-58
2022/12/20 01:49:41;;;;;;;1.23;0.77;;;3.50;99.90;;;;;;5053508;28;20216;-59
2022/12/20 01:52:19;;;;;;;0.10;0.10;;;3.60;99.90;;;;;;5050581;28;20173;-58
2022/12/20 01:54:50;;;;;;;0.00;0.00;;;3.70;99.90;;;;;;5053240;28;20189;-58
2022/12/20 01:57:23;;;;;;;0.10;0.10;;;3.70;99.90;;;;;;5053574;28;20177;-59
2022/12/20 01:59:51;;;;;;;0.00;0.00;;;3.70;99.90;;;;;;5053304;28;20185;-58
2022/12/20 02:02:17;;;;;;;0.00;0.00;;;3.80;99.90;;;;;;5053484;28;20710;-58
2022/12/20 02:04:42;;;;;;;0.00;0.00;;;3.80;99.90;;;;;;5053169;28;20260;-58
2022/12/20 02:07:12;;;;;;;0.00;0.00;;;3.80;99.90;;;;;;5053440;28;20287;-58
2022/12/20 02:09:38;;;;;;;0.17;0.17;;;3.90;99.90;;;;;;5052375;28;20216;-58
2022/12/20 02:12:14;;;;;;;0.00;0.00;;;3.90;99.90;;;;;;5051678;28;20225;-58
2022/12/20 02:15:07;;;;;;;0.00;0.00;;;3.90;99.90;;;;;;5043268;28;20185;-58
2022/12/20 02:17:51;;;;;;;0.00;0.00;;;3.90;99.90;;;;;;5063619;28;20177;-58
2022/12/20 02:20:54;;;;;;;0.15;0.15;;;3.90;99.90;;;;;;5052986;28;20169;-58
2022/12/20 02:23:57;;;;;;;0.10;0.10;;;3.90;99.90;;;;;;5033220;28;20260;-59
2022/12/20 02:26:44;;;;;;;0.00;0.00;;;3.90;99.90;;;;;;5040138;28;20591;-58
2022/12/20 02:29:32;;;;;;;0.00;0.00;;;3.90;99.90;;;;;;5052527;28;20219;-58
2022/12/20 02:32:19;;;;;;;0.80;0.30;;;4.00;99.90;;;;;;5052518;28;20199;-58
2022/12/20 02:34:45;;;;;;;0.00;0.00;;;3.90;99.90;;;;;;5037446;28;20540;-58
2022/12/20 02:37:11;;;;;;;0.00;0.00;;;3.90;99.90;;;;;;5045617;28;20185;-58
2022/12/20 02:39:39;;;;;;;0.30;0.30;;;3.90;99.90;;;;;;5051968;28;20173;-58
2022/12/20 02:42:34;;;;;;;0.00;0.00;;;4.00;99.90;;;;;;5052507;28;20176;-59
2022/12/20 02:45:16;;;;;;;0.03;0.03;;;4.00;99.90;;;;;;5047521;28;20197;-58
2022/12/20 02:47:53;;;;;;;0.20;0.20;;;4.00;99.90;;;;;;5051988;28;20588;-58
2022/12/20 02:50:33;;;;;;;0.15;0.15;;;4.10;99.90;;;;;;5051684;28;20177;-58
2022/12/20 02:52:59;;;;;;;0.10;0.10;;;4.00;99.90;;;;;;5048013;28;20570;-58
2022/12/20 02:55:48;;;;;;;0.00;0.00;;;4.00;99.90;;;;;;5051049;28;20182;-58
2022/12/20 02:58:30;;;;;;;0.00;0.00;;;4.00;99.90;;;;;;5052058;28;20268;-58
2022/12/20 03:01:03;;;;;;;0.15;0.15;;;4.00;99.90;;;;;;5051758;28;20644;-58
2022/12/20 03:03:33;;;;;;;0.00;0.00;;;4.00;99.90;;;;;;5052124;28;20652;-58
2022/12/20 03:05:59;;;;;;;0.10;0.10;;;4.10;99.90;;;;;;5051253;28;20178;-58
2022/12/20 03:08:25;;;;;;;0.17;0.17;;;4.00;99.90;;;;;;5051820;28;20201;-58
2022/12/20 03:10:52;;;;;;;0.70;0.63;;;4.00;99.90;;;;;;5051769;28;20239;-59
2022/12/20 03:13:18;;;;;;;0.00;0.00;;;4.00;99.90;;;;;;5051227;28;20269;-58
2022/12/20 03:15:43;;;;;;;0.00;0.00;;;4.00;99.90;;;;;;5050289;28;20268;-58
2022/12/20 03:18:09;;;;;;;0.30;0.30;;;4.00;99.90;;;;;;5051966;28;20176;-58
2022/12/20 03:20:35;;;;;;;0.05;0.03;;;4.00;99.90;;;;;;5051485;28;20234;-58
2022/12/20 03:23:01;;;;;;;0.00;0.00;;;4.00;99.90;;;;;;5051721;28;20197;-58
2022/12/20 03:25:27;;;;;;;0.70;0.55;;;4.00;99.90;;;;;;5051064;28;20177;-58
2022/12/20 03:27:52;;;;;;;0.17;0.17;;;4.10;99.90;;;;;;5051322;28;20637;-59
2022/12/20 03:30:18;;;;;;;0.28;0.28;;;4.00;99.90;;;;;;5051487;28;20777;-59
2022/12/20 03:32:44;;;;;;;0.30;0.30;;;4.00;99.90;;;;;;5051535;28;20181;-58
2022/12/20 03:35:09;;;;;;;0.20;0.20;;;4.10;99.90;;;;;;5049079;28;20212;-58
2022/12/20 03:37:35;;;;;;;0.13;0.13;;;4.10;99.90;;;;;;5050965;28;20181;-58
2022/12/20 03:40:01;;;;;;;0.10;0.10;;;4.10;99.90;;;;;;5051437;28;20239;-58
2022/12/20 03:42:26;;;;;;;0.00;0.00;;;4.00;99.90;;;;;;5050970;28;20185;-58
2022/12/20 03:44:52;;;;;;;0.13;0.13;;;4.00;99.90;;;;;;5050775;28;20184;-58
2022/12/20 03:47:18;;;;;;;0.05;0.05;;;4.00;99.90;;;;;;5051553;28;20177;-59
2022/12/20 03:49:43;;;;;;;0.10;0.10;;;4.10;99.90;;;;;;5051509;28;20213;-58
2022/12/20 03:52:11;;;;;;;0.00;0.00;;;4.20;99.90;;;;;;5051535;28;20177;-58
2022/12/20 03:54:37;;;;;;;0.00;0.00;;;4.20;99.90;;;;;;5051206;28;20177;-59
2022/12/20 03:57:03;;;;;;;0.10;0.10;;;4.10;99.90;;;;;;5051820;28;20624;-59
2022/12/20 03:59:28;;;;;;;0.10;0.10;;;4.10;99.90;;;;;;5051502;28;20193;-58
2022/12/20 04:01:54;;;;;;;0.00;0.00;;;4.10;99.90;;;;;;5051359;28;20165;-59
2022/12/20 04:04:19;;;;;;;0.00;0.00;;;4.00;99.90;;;;;;5051710;28;20182;-58
2022/12/20 04:06:45;;;;;;;0.00;0.00;;;4.10;99.90;;;;;;5051105;28;20509;-58
2022/12/20 04:09:11;;;;;;;0.00;0.00;;;4.10;99.90;;;;;;5051104;28;20528;-58
2022/12/20 04:11:38;;;;;;;0.47;0.47;;;4.00;99.90;;;;;;5050943;28;20308;-58
2022/12/20 04:14:04;;;;;;;0.00;0.00;;;4.00;99.90;;;;;;5051458;28;20268;-58
2022/12/20 04:16:30;;;;;;;0.10;0.10;;;3.90;99.90;;;;;;5053377;28;20720;-59
2022/12/20 04:18:56;;;;;;;0.00;0.00;;;3.90;99.90;;;;;;5055256;28;20185;-58
2022/12/20 04:21:27;;;;;;;0.10;0.10;;;3.90;99.90;;;;;;5054106;28;20165;-58
2022/12/20 04:23:53;;;;;;;0.30;0.30;;;3.90;99.90;;;;;;5055214;28;20672;-59
2022/12/20 04:26:19;;;;;;;0.00;0.00;;;3.90;99.90;;;;;;5055257;28;20209;-59
2022/12/20 04:28:45;;;;;;;0.05;0.05;;;3.90;99.90;;;;;;5054658;28;20668;-59
2022/12/20 04:31:11;;;;;;;0.00;0.00;;;3.90;99.90;;;;;;5054933;28;20246;-59
2022/12/20 04:33:37;;;;;;;0.13;0.13;;;3.90;99.90;;;;;;5055011;28;20178;-58
2022/12/20 04:36:04;;;;;;;0.00;0.00;;;3.90;99.90;;;;;;5055173;28;20238;-59
2022/12/20 04:38:29;;;;;;;0.08;0.08;;;3.90;99.90;;;;;;5054984;28;20173;-60
2022/12/20 04:40:55;;;;;;;0.10;0.10;;;3.90;99.90;;;;;;5054264;28;20643;-58
2022/12/20 04:43:22;;;;;;;0.00;0.00;;;3.90;99.90;;;;;;5054145;28;20197;-58
2022/12/20 04:45:52;;;;;;;0.00;0.00;;;3.90;99.90;;;;;;5053985;28;20201;-58
2022/12/20 04:48:19;;;;;;;0.10;0.10;;;4.00;99.90;;;;;;5054259;28;20240;-60
2022/12/20 04:50:48;;;;;;;0.00;0.00;;;4.00;99.90;;;;;;5050121;28;20186;-61
2022/12/20 04:55:59;;;;;;;0.08;0.08;;;3.90;99.90;;;;;;5054760;28;20243;-62
2022/12/20 04:58:24;;;;;;;0.00;0.00;;;3.90;99.90;;;;;;5054305;28;20177;-61
2022/12/20 05:00:53;;;;;;;0.22;0.22;;;3.90;99.90;;;;;;5053886;28;20186;-62
2022/12/20 05:03:19;;;;;;;0.15;0.15;;;3.90;99.90;;;;;;5053715;28;20170;-60
2022/12/20 05:05:45;;;;;;;0.30;0.30;;;4.00;99.90;;;;;;5053464;28;20196;-62
2022/12/20 05:08:11;;;;;;;0.22;0.22;;;3.90;99.90;;;;;;5053935;28;20201;-62
2022/12/20 05:10:37;;;;;;;0.20;0.20;;;3.90;99.90;;;;;;5053969;28;20178;-62
2022/12/20 05:13:02;;;;;;;0.10;0.10;;;3.90;99.90;;;;;;5053694;28;20747;-62
2022/12/20 05:15:28;;;;;;;0.00;0.00;;;4.00;99.90;;;;;;5054488;28;20180;-62
2022/12/20 05:17:58;;;;;;;0.05;0.05;;;3.90;99.90;;;;;;5054239;28;20251;-61
2022/12/20 05:20:25;;;;;;;0.00;0.00;;;3.90;99.90;;;;;;5054405;28;20185;-62
2022/12/20 05:28:20;;;;;;;0.00;0.00;;;3.90;99.90;;;;;;5053254;28;20243;-62
2022/12/20 05:30:46;;;;;;;0.00;0.00;;;3.90;99.90;;;;;;5053969;28;20170;-62
2022/12/20 05:33:11;;;;;;;0.00;0.00;;;4.00;99.90;;;;;;5053899;28;20174;-62
2022/12/20 05:35:37;;;;;;;0.05;0.05;;;4.00;99.90;;;;;;5052710;28;20178;-62
2022/12/20 05:38:02;;;;;;;0.00;0.00;;;3.90;99.90;;;;;;5053921;28;20181;-62
2022/12/20 05:40:28;;;;;;;0.00;0.00;;;3.90;99.90;;;;;;5053954;28;20653;-62
2022/12/20 05:42:54;;;;;;;0.00;0.00;;;3.90;99.90;;;;;;5053855;28;20181;-62
2022/12/20 05:45:19;;;;;;;0.10;0.10;;;3.90;99.90;;;;;;5053848;28;20200;-62
2022/12/20 05:47:45;;;;;;;0.05;0.05;;;3.90;99.90;;;;;;5053666;28;20272;-62
2022/12/20 05:50:10;;;;;;;0.38;0.35;;;3.90;99.90;;;;;;5053793;28;20312;-62
2022/12/20 05:52:36;;;;;;;0.00;0.00;;;3.90;99.90;;;;;;5046375;28;20185;-62
2022/12/20 05:55:02;;;;;;;0.22;0.22;;;3.90;99.90;;;;;;5053811;28;20184;-62
2022/12/20 05:57:27;;;;;;;0.25;0.25;;;3.90;99.90;;;;;;5053652;28;20174;-61
2022/12/20 05:59:53;;;;;;;0.00;0.00;;;3.90;99.90;;;;;;5053351;28;20196;-61
2022/12/20 06:02:19;;;;;;;0.52;0.43;;;3.80;99.90;;;;;;5053526;28;20188;-62
2022/12/20 06:04:44;;;;;;;0.10;0.10;;;3.90;99.90;;;;;;5053295;28;20264;-62
2022/12/20 06:07:10;;;;;;;2.38;1.33;;;3.90;99.90;;;;;;5053362;28;20208;-62
2022/12/20 06:09:35;;;;;;;0.08;0.08;;;3.90;99.90;;;;;;5053227;28;20217;-62
2022/12/20 06:12:01;;;;;;;0.00;0.00;;;3.90;99.90;;;;;;5052902;28;20220;-62
2022/12/20 06:14:26;;;;;;;0.38;0.38;;;3.90;99.90;;;;;;5044868;28;20181;-63
2022/12/20 06:16:52;;;;;;;0.10;0.10;;;3.90;99.90;;;;;;5043105;28;20192;-63
2022/12/20 06:19:18;;;;;;;0.10;0.10;;;3.90;99.90;;;;;;5044311;28;20211;-61
2022/12/20 06:21:43;;;;;;;0.13;0.13;;;4.00;99.90;;;;;;5052505;28;20173;-59
2022/12/20 06:24:09;;;;;;;0.32;0.32;;;4.00;99.90;;;;;;5052456;28;20188;-61
2022/12/20 06:26:35;;;;;;;0.10;0.10;;;4.00;99.90;;;;;;5052417;28;20185;-61
2022/12/20 06:29:09;;;;;;;0.13;0.13;;;4.00;99.90;;;;;;5052884;28;20217;-65
2022/12/20 06:31:35;;;;;;;0.00;0.00;;;4.00;99.90;;;;;;5038165;28;20175;-64
2022/12/20 06:34:00;;;;;;;1.60;0.43;;;4.00;99.90;;;;;;5049017;28;20188;-64
2022/12/20 06:36:26;;;;;;;0.00;0.00;;;4.00;99.90;;;;;;5052414;28;20224;-61
2022/12/20 06:38:51;;;;;;;0.05;0.05;;;4.00;99.90;;;;;;5052336;28;20185;-63
2022/12/20 06:41:18;;;;;;;0.15;0.15;;;4.00;99.90;;;;;;5052534;28;20189;-59
2022/12/20 06:43:43;;;;;;;0.00;0.00;;;4.00;99.90;;;;;;5052532;28;20196;-61
2022/12/20 06:46:09;;;;;;;0.63;0.63;;;4.00;99.90;;;;;;5052270;28;20185;-60
2022/12/20 06:48:35;;;;;;;0.15;0.15;;;4.00;99.90;;;;;;5041934;28;20734;-59
2022/12/20 06:51:00;;;;;;;0.20;0.20;;;4.00;99.90;;;;;;5052528;28;20180;-62
2022/12/20 06:53:26;;;;;;;0.15;0.15;;;4.00;99.90;;;;;;5052379;28;20239;-63
2022/12/20 06:55:51;;;;;;;1.08;0.73;;;4.00;99.90;;;;;;5052326;28;20546;-63
2022/12/20 06:58:18;;;;;;;0.00;0.00;;;4.00;99.90;;;;;;5052102;28;20232;-60
2022/12/20 07:00:44;;;;;;;0.13;0.13;;;4.00;99.90;;;;;;5052047;28;20186;-61
2022/12/20 07:03:10;;;;;;;0.43;0.43;;;4.00;99.90;;;;;;5052090;28;20196;-58
2022/12/20 07:05:35;;;;;;;0.20;0.20;;;3.90;99.90;;;;;;5052083;28;20567;-61
2022/12/20 07:08:03;;;;;;;0.70;0.40;;;3.90;99.90;;;;;;5052246;28;20177;-60
2022/12/20 07:10:29;;;;;;;0.70;0.70;;;4.00;99.90;;;;;;5052164;28;20182;-58
2022/12/20 07:12:55;;;;;;;0.05;0.05;;;4.00;99.90;;;;;;5051850;28;20217;-61
2022/12/20 07:15:21;;;;;;;0.20;0.20;;;4.00;99.90;;;;;;5052088;28;20186;-61
2022/12/20 07:17:46;;;;;;;1.00;1.00;;;4.00;99.90;;;;;;5051865;28;20181;-60
2022/12/20 07:20:13;;;;;;;0.20;0.20;;;4.00;99.90;;;;;;5052016;28;20177;-60
2022/12/20 07:22:38;;;;;;;0.38;0.38;;;4.10;99.90;;;;;;5051617;28;20270;-58
2022/12/20 07:25:04;;;;;;;0.00;0.00;;;4.10;99.90;;;;;;5052017;28;20649;-58
2022/12/20 07:27:30;;;;;;;0.00;0.00;;;4.10;99.90;;;;;;5051939;28;20270;-60
2022/12/20 07:29:55;;;;;;;0.10;0.10;;;4.10;99.90;;;;;;5051711;28;20213;-58
2022/12/20 07:32:21;;;;;;;0.30;0.30;;;4.00;99.90;;;;;;5051964;28;20193;-59
2022/12/20 07:34:46;;;;;;;0.13;0.13;;;4.00;99.90;;;;;;5051542;28;20641;-58
2022/12/20 07:37:12;;;;;;;0.17;0.17;;;4.00;99.90;;;;;;5051781;28;20655;-59
2022/12/20 07:39:37;;;;;;;0.10;0.10;;;4.00;99.90;;;;;;5051809;28;20248;-60
2022/12/20 07:42:03;;;;;;;0.00;0.00;;;4.00;99.90;;;;;;5051722;28;20280;-63
2022/12/20 07:44:29;;;;;;;0.22;0.13;;;4.00;99.90;;;;;;5051491;28;20264;-59
2022/12/20 07:46:54;;;;;;;0.38;0.38;;;4.00;99.90;;;;;;5051153;28;20188;-59
2022/12/20 07:49:20;;;;;;;0.00;0.00;;;4.10;99.90;;;;;;5051299;28;20209;-59
2022/12/20 07:51:52;;;;;;;0.17;0.17;;;4.10;99.90;;;;;;5054449;28;20177;-59
2022/12/20 07:54:32;;;;;;;0.32;0.25;;;4.10;99.90;;;;;;5056069;28;20204;-59
2022/12/20 07:57:00;;;;;;;0.28;0.28;;;4.10;99.90;;;;;;5055943;28;20173;-59
2022/12/20 07:59:37;;;;;;;0.25;0.25;;;4.20;99.90;;;;;;5055884;28;20188;-59
2022/12/20 08:02:04;;;;;;;0.20;0.20;;;4.20;99.90;;;;;;5055952;28;20203;-58
2022/12/20 08:04:29;;;;;;;0.28;0.28;;;4.30;99.90;;;;;;5055767;28;20185;-59
2022/12/20 08:06:57;;;;;;;0.22;0.20;;;4.30;99.90;;;;;;5055659;28;20234;-59
2022/12/20 08:09:25;;;;;;;0.10;0.10;;;4.30;99.90;;;;;;5055651;28;20209;-59
2022/12/20 08:11:52;;;;;;;0.10;0.10;;;4.30;99.90;;;;;;5055353;28;20235;-59
2022/12/20 08:14:19;;;;;;;0.17;0.17;;;4.40;99.90;;;;;;5055569;28;20184;-59
2022/12/20 08:16:45;;;;;;;0.00;0.00;;;4.40;99.90;;;;;;5055407;28;20220;-59
2022/12/20 08:19:11;;;;;;;0.43;0.43;;;4.40;99.90;;;;;;5055505;28;20664;-59
2022/12/20 08:21:37;;;;;;;0.43;0.43;;;4.40;99.90;;;;;;5055298;28;20181;-60
2022/12/20 08:24:02;;;;;;;0.00;0.00;;;4.50;99.90;;;;;;5055468;28;20525;-59
2022/12/20 08:26:28;;;;;;;0.08;0.08;;;4.50;99.90;;;;;;5055396;28;20180;-58
2022/12/20 08:28:54;;;;;;;0.40;0.40;;;4.50;99.90;;;;;;5055139;28;20691;-59
2022/12/20 08:31:20;;;;;;;0.00;0.00;;;4.60;99.90;;;;;;5055420;28;20227;-59
2022/12/20 08:33:46;;;;;;;0.00;0.00;;;4.60;99.90;;;;;;5055262;28;20636;-59
2022/12/20 08:36:12;;;;;;;0.00;0.00;;;4.60;99.90;;;;;;5055209;28;20223;-59
2022/12/20 08:38:38;;;;;;;1.50;0.85;;;4.60;99.90;;;;;;5055227;28;20277;-59
2022/12/20 08:41:05;;;;;;;0.00;0.00;;;4.70;99.90;;;;;;5055317;28;20256;-59
2022/12/20 08:43:32;;;;;;;0.00;0.00;;;4.70;99.90;;;;;;5055043;28;20181;-59
2022/12/20 08:45:57;;;;;;;0.00;0.00;;;4.70;99.90;;;;;;5055307;28;20173;-59
2022/12/20 08:48:23;;;;;;;0.20;0.20;;;4.70;99.90;;;;;;5055101;28;20244;-59
2022/12/20 08:51:15;;;;;;;0.15;0.15;;;4.80;99.90;;;;;;5054863;28;20184;-59
2022/12/20 08:53:41;;;;;;;0.00;0.00;;;4.90;99.90;;;;;;5053708;28;20185;-59
2022/12/20 08:56:15;;;;;;;0.30;0.30;;;5.00;99.90;;;;;;5054712;28;20185;-59
2022/12/20 08:58:42;;;;;;;0.00;0.00;;;5.10;99.90;;;;;;5054606;28;20177;-58
2022/12/20 09:01:11;;;;;;;0.10;0.10;;;5.30;99.90;;;;;;5054337;28;20182;-60
2022/12/20 09:03:37;;;;;;;0.00;0.00;;;5.40;99.90;;;;;;5053120;28;20184;-59
2022/12/20 09:06:08;;;;;;;0.10;0.10;;;5.70;99.90;;;;;;5054587;28;20174;-58
2022/12/20 09:08:35;;;;;;;0.20;0.20;;;5.80;99.90;;;;;;5054127;28;20201;-59
2022/12/20 09:11:13;;;;;;;0.10;0.10;;;6.00;99.90;;;;;;5053413;28;20177;-61
2022/12/20 09:13:44;;;;;;;0.00;0.00;;;6.10;99.90;;;;;;5054651;28;20259;-57
2022/12/20 09:16:10;;;;;;;0.00;0.00;;;6.10;99.90;;;;;;5054144;28;20224;-59
2022/12/20 09:18:36;;;;;;;0.80;0.60;;;6.10;99.90;;;;;;5054149;28;20727;-60
2022/12/20 09:21:04;;;;;;;0.43;0.43;;;6.30;99.90;;;;;;5053763;28;20273;-58
2022/12/20 09:23:31;;;;;;;0.00;0.00;;;6.40;99.90;;;;;;5054190;28;20544;-58
2022/12/20 09:26:11;;;;;;;0.00;0.00;;;6.50;99.90;;;;;;5054089;28;20318;-57
2022/12/20 09:28:37;;;;;;;0.43;0.43;;;6.60;99.90;;;;;;5053910;28;20255;-60
2022/12/20 09:31:05;;;;;;;0.03;0.03;;;6.70;99.90;;;;;;5054000;28;20182;-60
2022/12/20 09:33:31;;;;;;;0.03;0.03;;;6.80;99.90;;;;;;5053460;28;20185;-62
2022/12/20 09:35:58;;;;;;;0.00;0.00;;;6.90;99.90;;;;;;5053571;28;20269;-61
2022/12/20 09:38:24;;;;;;;0.10;0.10;;;7.10;99.90;;;;;;5053938;28;20268;-59
2022/12/20 09:40:52;;;;;;;0.00;0.00;;;7.30;99.90;;;;;;5049574;28;20193;-60
2022/12/20 09:43:19;;;;;;;0.00;0.00;;;7.40;99.90;;;;;;5052635;28;20536;-59
2022/12/20 09:45:47;;;;;;;0.00;0.00;;;7.50;99.90;;;;;;5053454;28;20186;-59
2022/12/20 09:48:20;;;;;;;0.00;0.00;;;7.50;99.90;;;;;;5053681;28;20188;-59
2022/12/20 09:50:59;;;;;;;0.00;0.00;;;7.60;99.90;;;;;;5053783;28;20189;-59
2022/12/20 09:53:33;;;;;;;0.00;0.00;;;7.60;99.90;;;;;;5053852;28;20624;-60
2022/12/20 09:56:09;;;;;;;0.10;0.10;;;7.60;99.90;;;;;;5053734;28;20279;-59
2022/12/20 09:58:54;;;;;;;0.00;0.00;;;7.70;99.90;;;;;;5053632;28;20531;-59
2022/12/20 10:01:21;;;;;;;0.00;0.00;;;7.80;99.90;;;;;;5053592;28;20166;-59
2022/12/20 10:03:46;;;;;;;0.00;0.00;;;7.80;99.90;;;;;;5053514;28;20200;-59
2022/12/20 10:06:36;;;;;;;0.00;0.00;;;7.80;99.90;;;;;;5053521;28;20173;-59
2022/12/20 10:09:04;;;;;;;0.00;0.00;;;7.90;99.90;;;;;;5052269;28;20567;-59
2022/12/20 10:11:55;;;;;;;0.30;0.30;;;7.90;99.90;;;;;;5053164;28;20217;-60
2022/12/20 10:14:49;;;;;;;0.00;0.00;;;8.00;99.90;;;;;;5053011;28;20185;-59
2022/12/20 10:17:36;;;;;;;0.00;0.00;;;8.10;99.90;;;;;;5033521;28;20240;-59
2022/12/20 10:20:07;;;;;;;0.00;0.00;;;8.10;99.90;;;;;;5033420;28;20634;-60
2022/12/20 10:22:47;;;;;;;0.15;0.15;;;8.10;99.90;;;;;;5045916;28;20518;-59
2022/12/20 10:25:22;;;;;;;0.00;0.00;;;8.10;99.90;;;;;;5052067;28;20181;-59
2022/12/20 10:27:51;;;;;;;0.00;0.00;;;8.10;99.90;;;;;;5052072;28;20177;-59
2022/12/20 10:30:22;;;;;;;0.00;0.00;;;8.00;99.90;;;;;;5053125;28;20209;-59
2022/12/20 10:32:50;;;;;;;0.00;0.00;;;8.00;99.90;;;;;;5053098;28;20178;-60
2022/12/20 10:35:24;;;;;;;0.20;0.20;;;7.90;99.90;;;;;;5053013;28;20638;-59
2022/12/20 10:38:05;;;;;;;0.00;0.00;;;7.90;99.90;;;;;;5052926;28;20188;-59
2022/12/20 10:40:35;;;;;;;0.00;0.00;;;8.00;99.90;;;;;;5052772;28;20182;-59
2022/12/20 10:43:02;;;;;;;0.10;0.10;;;8.00;99.90;;;;;;5052856;28;20629;-59
2022/12/20 10:45:39;;;;;;;0.00;0.00;;;8.00;99.90;;;;;;5052645;28;20177;-60
2022/12/20 10:48:24;;;;;;;0.10;0.10;;;8.00;99.90;;;;;;5038325;28;20174;-59
2022/12/20 10:51:11;;;;;;;0.00;0.00;;;8.00;99.90;;;;;;5042564;28;20185;-59
2022/12/20 10:53:49;;;;;;;0.20;0.20;;;8.10;99.90;;;;;;5052323;28;20219;-59
2022/12/20 10:56:20;;;;;;;0.00;0.00;;;8.10;99.90;;;;;;5052459;28;20181;-59
2022/12/20 10:59:17;;;;;;;0.00;0.00;;;8.20;99.90;;;;;;5051287;28;20177;-59
2022/12/20 11:01:45;;;;;;;0.00;0.00;;;8.30;99.90;;;;;;5032472;28;20178;-59
2022/12/20 11:04:33;;;;;;;0.00;0.00;;;8.30;99.90;;;;;;5032576;28;20272;-59
2022/12/20 11:07:01;;;;;;;0.00;0.00;;;8.40;99.90;;;;;;5032670;28;20220;-59
2022/12/20 11:09:29;;;;;;;0.00;0.00;;;8.40;99.90;;;;;;5032294;28;20226;-59
2022/12/20 11:12:02;;;;;;;0.00;0.00;;;8.40;99.90;;;;;;5035997;28;20213;-59
2022/12/20 11:14:28;;;;;;;0.25;0.25;;;8.50;99.90;;;;;;5051117;28;20608;-59
2022/12/20 11:16:55;;;;;;;0.00;0.00;;;8.50;99.90;;;;;;5052025;28;20191;-60
2022/12/20 11:19:33;;;;;;;0.00;0.00;;;8.50;99.90;;;;;;5052855;28;20672;-59
2022/12/20 11:22:24;;;;;;;0.10;0.10;;;8.50;99.90;;;;;;5064033;28;20177;-58
2022/12/20 11:25:10;;;;;;;0.00;0.00;;;8.50;99.90;;;;;;5051178;28;20520;-60
2022/12/20 11:27:54;;;;;;;0.10;0.10;;;8.50;99.90;;;;;;5052079;28;20188;-60
2022/12/20 11:30:32;;;;;;;0.00;0.00;;;8.50;99.90;;;;;;5052105;28;20213;-60
2022/12/20 11:33:06;;;;;;;0.05;0.05;;;8.40;99.90;;;;;;5050850;28;20181;-59
2022/12/20 11:35:53;;;;;;;0.00;0.00;;;8.40;99.90;;;;;;5051977;28;20178;-60
2022/12/20 11:38:48;;;;;;;0.10;0.10;;;8.30;99.90;;;;;;5052027;28;20172;-60
2022/12/20 11:41:55;;;;;;;0.10;0.10;;;8.30;99.90;;;;;;5051972;28;20181;-59
2022/12/20 11:44:29;;;;;;;0.10;0.10;;;8.30;99.90;;;;;;5051341;28;20209;-60
2022/12/20 11:47:26;;;;;;;0.10;0.10;;;8.40;99.90;;;;;;5051908;28;20188;-59
2022/12/20 11:50:06;;;;;;;0.15;0.15;;;8.40;99.90;;;;;;5051628;28;20267;-59
2022/12/20 11:52:40;;;;;;;1.17;0.65;;;8.40;99.90;;;;;;5051336;28;20204;-58
2022/12/20 11:55:20;;;;;;;0.00;0.00;;;8.40;99.90;;;;;;5050734;28;20177;-58
2022/12/20 11:58:03;;;;;;;0.05;0.05;;;8.50;99.90;;;;;;5051522;28;20751;-59
2022/12/20 12:00:34;;;;;;;1.30;0.85;;;8.50;99.90;;;;;;5050951;28;20180;-59
2022/12/20 12:03:28;;;;;;;0.00;0.00;;;8.50;99.90;;;;;;5038642;28;20177;-58
2022/12/20 12:06:01;;;;;;;1.08;0.63;;;8.50;99.90;;;;;;5051434;28;20180;-58
2022/12/20 12:08:38;;;;;;;0.30;0.30;;;8.60;99.90;;;;;;5051106;28;20205;-59
2022/12/20 12:11:11;;;;;;;0.85;0.85;;;8.60;99.90;;;;;;5051269;28;20262;-59
2022/12/20 12:13:39;;;;;;;0.60;0.60;;;8.70;99.90;;;;;;5050860;28;20551;-59
2022/12/20 12:16:22;;;;;;;0.20;0.20;;;8.70;99.90;;;;;;5051587;28;20182;-60
2022/12/20 12:18:48;;;;;;;0.00;0.00;;;8.80;99.90;;;;;;5051664;28;20252;-59
2022/12/20 12:21:25;;;;;;;0.00;0.00;;;8.80;99.90;;;;;;5050210;28;20534;-61
2022/12/20 12:24:22;;;;;;;0.20;0.20;;;8.80;99.90;;;;;;5051414;28;20567;-60
2022/12/20 12:26:48;;;;;;;0.60;0.60;;;8.80;99.90;;;;;;5051805;28;20185;-59
2022/12/20 12:29:18;;;;;;;0.10;0.10;;;8.80;99.90;;;;;;5051505;28;20239;-58
2022/12/20 12:31:56;;;;;;;0.28;0.28;;;8.90;99.90;;;;;;5051409;28;20180;-62
2022/12/20 12:34:40;;;;;;;0.00;0.00;;;9.00;99.90;;;;;;5046722;28;20587;-60
2022/12/20 12:37:21;;;;;;;0.00;0.00;;;9.00;99.90;;;;;;5033000;28;20178;-61
2022/12/20 12:40:10;;;;;;;0.10;0.10;;;9.10;99.90;;;;;;5035313;28;20231;-60
2022/12/20 12:42:48;;;;;;;0.43;0.43;;;9.10;99.90;;;;;;5035335;28;20173;-61
2022/12/20 12:45:22;;;;;;;0.10;0.10;;;9.20;99.90;;;;;;5034004;28;20192;-60
2022/12/20 12:47:55;;;;;;;0.00;0.00;;;9.10;99.90;;;;;;5033852;28;20219;-61
2022/12/20 12:50:29;;;;;;;0.00;0.00;;;9.10;99.90;;;;;;5035056;28;20228;-61
2022/12/20 12:53:03;;;;;;;0.00;0.00;;;9.10;99.90;;;;;;5035092;28;20174;-61
2022/12/20 12:55:37;;;;;;;0.10;0.10;;;9.20;99.90;;;;;;5035031;28;20653;-60
2022/12/20 12:58:21;;;;;;;0.08;0.08;;;9.30;99.90;;;;;;5034950;28;20179;-61
2022/12/20 13:00:52;;;;;;;0.30;0.30;;;9.40;99.90;;;;;;5034805;28;20174;-62
2022/12/20 13:03:45;;;;;;;0.00;0.00;;;9.50;99.90;;;;;;5034965;28;20702;-61
2022/12/20 13:06:27;;;;;;;0.10;0.10;;;9.60;99.90;;;;;;5034872;28;20171;-60
2022/12/20 13:08:58;;;;;;;0.00;0.00;;;9.60;99.90;;;;;;5034610;28;20206;-61
2022/12/20 13:11:40;;;;;;;0.00;0.00;;;9.60;99.90;;;;;;5033218;28;20237;-61
2022/12/20 13:14:22;;;;;;;0.00;0.00;;;9.60;99.90;;;;;;5034738;28;20185;-60
2022/12/20 13:16:52;;;;;;;0.00;0.00;;;9.60;99.90;;;;;;5052344;28;20702;-60
2022/12/20 13:19:24;;;;;;;0.13;0.13;;;9.60;99.90;;;;;;5053220;28;20246;-60
2022/12/20 13:22:13;;;;;;;0.00;0.00;;;9.60;99.90;;;;;;5054202;28;20182;-61
2022/12/20 13:24:47;;;;;;;0.00;0.00;;;9.60;99.90;;;;;;5054319;28;20173;-61